createdAt,value
2022-07-25T00:00:59.502Z,97631.94
2022-07-25T00:05:04.729Z,97632.19
2022-07-25T00:09:08.182Z,97632.63
2022-07-25T00:13:11.662Z,97624.56
2022-07-25T00:17:16.576Z,97612.81
2022-07-25T00:21:19.701Z,97610.03
2022-07-25T00:25:23.232Z,97607.50
2022-07-25T00:29:26.962Z,97614.28
2022-07-25T00:33:31.654Z,97619.25
2022-07-25T00:37:35.064Z,97610.13
2022-07-25T00:41:38.918Z,97610.59
2022-07-25T00:45:42.173Z,97610.38
2022-07-25T00:49:47.145Z,97602.63
2022-07-25T00:53:50.279Z,97600.00
2022-07-25T00:57:53.322Z,97598.34
2022-07-25T01:01:56.902Z,97597.16
2022-07-25T01:06:01.886Z,97600.28
2022-07-25T01:10:05.974Z,97598.28
2022-07-25T01:14:09.855Z,97594.72
2022-07-25T01:18:13.448Z,97591.13
2022-07-25T01:22:18.510Z,97588.38
2022-07-25T01:26:22.364Z,97579.72
2022-07-25T01:30:27.546Z,97582.81
2022-07-25T01:34:30.833Z,97586.16
2022-07-25T01:38:35.908Z,97583.34
2022-07-25T01:42:39.396Z,97578.50
2022-07-25T01:46:42.635Z,97573.69
2022-07-25T01:50:46.423Z,97570.44
2022-07-25T01:54:51.625Z,97580.44
2022-07-25T01:58:54.776Z,97572.16
2022-07-25T02:03:12.167Z,97570.50
2022-07-25T02:07:15.691Z,97553.25
2022-07-25T02:11:21.017Z,97559.59
2022-07-25T02:15:24.361Z,97557.16
2022-07-25T02:19:28.064Z,97557.38
2022-07-25T02:23:31.508Z,97550.47
2022-07-25T02:27:36.699Z,97558.44
2022-07-25T02:31:40.251Z,97549.06
2022-07-25T02:35:43.942Z,97549.28
2022-07-25T02:39:47.274Z,97552.59
2022-07-25T02:43:52.307Z,97553.28
2022-07-25T02:47:56.054Z,97551.50
2022-07-25T02:52:00.295Z,97549.75
2022-07-25T02:56:03.851Z,97549.84
2022-07-25T03:00:12.105Z,97547.88
2022-07-25T03:04:16.295Z,97553.22
2022-07-25T03:08:20.228Z,97551.28
2022-07-25T03:12:23.778Z,97545.38
2022-07-25T03:16:29.104Z,97544.00
2022-07-25T03:20:32.683Z,97541.56
2022-07-25T03:24:35.977Z,97540.75
2022-07-25T03:28:39.489Z,97540.53
2022-07-25T03:32:44.613Z,97542.53
2022-07-25T03:36:48.085Z,97533.09
2022-07-25T03:40:51.320Z,97540.97
2022-07-25T03:44:54.817Z,97530.66
2022-07-25T03:48:59.723Z,97539.09
2022-07-25T03:53:03.284Z,97528.41
2022-07-25T03:57:07.535Z,97526.13
2022-07-25T04:01:11.111Z,97527.56
2022-07-25T04:05:16.008Z,97531.59
2022-07-25T04:09:19.500Z,97523.41
2022-07-25T04:13:22.857Z,97520.78
2022-07-25T04:17:26.554Z,97521.38
2022-07-25T04:21:31.327Z,97522.97
2022-07-25T04:25:34.758Z,97514.81
2022-07-25T04:29:38.281Z,97509.06
2022-07-25T04:33:42.629Z,97510.22
2022-07-25T04:37:47.406Z,97505.28
2022-07-25T04:41:50.768Z,97514.94
2022-07-25T04:45:54.589Z,97507.16
2022-07-25T04:49:58.047Z,97509.47
2022-07-25T04:54:02.523Z,97513.41
2022-07-25T04:58:07.063Z,97513.06
2022-07-25T05:02:10.620Z,97501.09
2022-07-25T05:06:13.745Z,97502.38
2022-07-25T05:10:20.882Z,97495.72
2022-07-25T05:14:24.497Z,97498.00
2022-07-25T05:18:27.584Z,97487.63
2022-07-25T05:22:30.736Z,97487.03
2022-07-25T05:26:35.625Z,97484.59
2022-07-25T05:30:40.056Z,97482.97
2022-07-25T05:34:43.512Z,97471.75
2022-07-25T05:38:47.176Z,97471.19
2022-07-25T05:42:52.508Z,97459.72
2022-07-25T05:46:55.701Z,97461.75
2022-07-25T05:51:00.729Z,97464.34
2022-07-25T05:55:04.426Z,97464.53
2022-07-25T05:59:09.049Z,97469.00
2022-07-25T06:03:12.359Z,97464.41
2022-07-25T06:07:17.098Z,97455.09
2022-07-25T06:11:20.792Z,97459.97
2022-07-25T06:15:26.728Z,97462.69
2022-07-25T06:19:30.843Z,97460.88
2022-07-25T06:23:34.386Z,97466.56
2022-07-25T06:27:38.984Z,97463.69
2022-07-25T06:31:46.365Z,97456.13
2022-07-25T06:35:50.824Z,97458.19
2022-07-25T06:39:54.385Z,97446.88
2022-07-25T06:43:57.431Z,97438.94
2022-07-25T06:48:02.366Z,97441.50
2022-07-25T06:52:06.094Z,97442.03
2022-07-25T06:56:14.351Z,97431.75
2022-07-25T07:00:20.569Z,97437.34
2022-07-25T07:04:25.348Z,97429.88
2022-07-25T07:08:28.867Z,97420.13
2022-07-25T07:12:32.626Z,97416.31
2022-07-25T07:16:36.730Z,97415.72
2022-07-25T07:20:41.986Z,97413.47
2022-07-25T07:24:48.175Z,97420.06
2022-07-25T07:28:54.863Z,97410.81
2022-07-25T07:32:58.711Z,97405.88
2022-07-25T07:37:03.781Z,97408.06
2022-07-25T07:41:07.485Z,97413.59
2022-07-25T07:45:16.332Z,97409.00
2022-07-25T07:49:19.560Z,97407.31
2022-07-25T08:02:27.568Z,97388.31
2022-07-25T08:06:31.272Z,97388.97
2022-07-25T08:10:38.429Z,97395.00
2022-07-25T08:14:42.005Z,97384.22
2022-07-25T08:18:45.636Z,97395.41
2022-07-25T08:22:54.477Z,97385.19
2022-07-25T08:27:01.695Z,97378.00
2022-07-25T08:31:05.378Z,97380.44
2022-07-25T08:35:11.457Z,97375.56
2022-07-25T08:39:15.263Z,97376.50
2022-07-25T08:43:21.487Z,97372.72
2022-07-25T08:47:25.109Z,97363.31
2022-07-25T08:51:29.420Z,97355.50
2022-07-25T08:55:32.968Z,97358.69
2022-07-25T08:59:37.878Z,97361.84
2022-07-25T09:03:41.436Z,97360.53
2022-07-25T09:07:44.654Z,97355.81
2022-07-25T09:11:49.006Z,97356.47
2022-07-25T09:15:57.113Z,97347.97
2022-07-25T09:20:00.761Z,97335.50
2022-07-25T09:24:12.336Z,97338.97
2022-07-25T09:28:18.216Z,97343.56
2022-07-25T09:32:25.909Z,97335.66
2022-07-25T09:36:29.616Z,97332.28
2022-07-25T09:40:33.272Z,97332.66
2022-07-25T09:44:36.436Z,97332.94
2022-07-25T09:48:45.909Z,97324.28
2022-07-25T09:52:49.801Z,97330.25
2022-07-25T09:56:53.942Z,97326.47
2022-07-25T10:01:02.617Z,97315.63
2022-07-25T10:05:16.313Z,97306.31
2022-07-25T10:09:19.938Z,97308.78
2022-07-25T10:13:32.648Z,97307.44
2022-07-25T10:17:37.110Z,97302.34
2022-07-25T10:21:42.445Z,97300.84
2022-07-25T10:25:49.105Z,97295.16
2022-07-25T10:29:55.752Z,97286.19
2022-07-25T10:34:01.622Z,97286.88
2022-07-25T10:38:08.101Z,97291.00
2022-07-25T10:42:15.794Z,97287.72
2022-07-25T10:46:21.495Z,97280.81
2022-07-25T10:50:53.580Z,97273.41
2022-07-25T10:54:57.522Z,97274.00
2022-07-25T10:59:02.613Z,97268.28
2022-07-25T11:03:11.468Z,97263.94
2022-07-25T11:07:18.584Z,97264.34
2022-07-25T11:11:23.424Z,97258.84
2022-07-25T11:15:27.337Z,97253.31
2022-07-25T11:19:31.397Z,97242.75
2022-07-25T11:23:34.873Z,97250.41
2022-07-25T11:27:39.776Z,97240.03
2022-07-25T11:31:42.997Z,97237.81
2022-07-25T11:35:46.163Z,97231.22
2022-07-25T11:39:50.027Z,97228.56
2022-07-25T11:43:54.953Z,97227.13
2022-07-25T11:48:08.269Z,97210.84
2022-07-25T11:52:20.710Z,97207.03
2022-07-25T12:00:51.312Z,97205.34
2022-07-25T12:04:59.263Z,97192.94
2022-07-25T12:09:17.997Z,97197.25
2022-07-25T12:13:25.857Z,97179.97
2022-07-25T12:17:30.679Z,97184.41
2022-07-25T12:21:33.775Z,97193.63
2022-07-25T12:25:38.382Z,97181.22
2022-07-25T12:29:41.555Z,97172.91
2022-07-25T12:33:46.479Z,97166.94
2022-07-25T12:37:49.786Z,97164.88
2022-07-25T12:41:54.694Z,97157.63
2022-07-25T12:45:58.288Z,97151.09
2022-07-25T12:50:02.893Z,97153.44
2022-07-25T12:54:06.589Z,97140.88
2022-07-25T12:58:10.479Z,97132.97
2022-07-25T13:02:13.909Z,97136.78
2022-07-25T13:06:20.923Z,97129.69
2022-07-25T13:10:24.124Z,97123.50
2022-07-25T13:14:27.508Z,97126.34
2022-07-25T13:18:30.891Z,97120.59
2022-07-25T13:22:38.056Z,97119.81
2022-07-25T13:26:41.738Z,97123.31
2022-07-25T13:30:44.842Z,97109.69
2022-07-25T13:34:48.220Z,97101.13
2022-07-25T13:38:52.800Z,97096.81
2022-07-25T13:42:57.369Z,97096.84
2022-07-25T13:47:00.605Z,97086.69
2022-07-25T13:51:04.489Z,97078.47
2022-07-25T13:55:10.559Z,97071.50
2022-07-25T13:59:20.367Z,97066.66
2022-07-25T14:03:24.284Z,97056.34
2022-07-25T14:07:27.738Z,97060.22
2022-07-25T14:11:33.731Z,97057.16
2022-07-25T14:15:38.680Z,97040.41
2022-07-25T14:19:44.123Z,97037.66
2022-07-25T14:23:51.537Z,97037.22
2022-07-25T14:27:59.066Z,97037.94
2022-07-25T14:32:05.434Z,97044.16
2022-07-25T14:36:13.397Z,97033.28
2022-07-25T14:40:19.734Z,97030.63
2022-07-25T14:44:27.301Z,97022.47
2022-07-25T14:48:34.259Z,97018.28
2022-07-25T14:52:39.526Z,97006.63
2022-07-25T14:56:47.225Z,97012.22
2022-07-25T15:00:53.835Z,97002.13
2022-07-25T15:04:59.230Z,96995.91
2022-07-25T15:09:05.978Z,96993.63
2022-07-25T15:17:38.891Z,96985.88
2022-07-25T15:21:47.291Z,96979.50
2022-07-25T15:26:02.312Z,96973.91
2022-07-25T15:30:10.046Z,96971.44
2022-07-25T15:34:16.987Z,96967.44
2022-07-25T15:38:22.661Z,96966.13
2022-07-25T15:42:29.369Z,96969.59
2022-07-25T15:46:34.362Z,96962.91
2022-07-25T15:50:44.563Z,96953.94
2022-07-25T15:54:50.278Z,96947.63
2022-07-25T15:58:56.845Z,96945.19
2022-07-25T16:03:02.090Z,96942.81
2022-07-25T16:07:10.196Z,96940.38
2022-07-25T16:11:16.558Z,96933.28
2022-07-25T16:15:22.987Z,96934.34
2022-07-25T16:19:29.021Z,96932.28
2022-07-25T16:23:37.867Z,96925.41
2022-07-25T16:27:42.400Z,96925.56
2022-07-25T16:31:46.601Z,96910.47
2022-07-25T16:35:51.169Z,96918.38
2022-07-25T16:39:56.733Z,96903.63
2022-07-25T16:44:00.995Z,96902.94
2022-07-25T16:48:08.524Z,96904.56
2022-07-25T16:52:13.332Z,96896.91
2022-07-25T16:56:19.790Z,96890.06
2022-07-25T17:00:23.726Z,96887.50
2022-07-25T17:04:29.785Z,96874.03
2022-07-25T17:08:33.609Z,96868.78
2022-07-25T17:12:38.549Z,96878.97
2022-07-25T17:16:45.347Z,96869.25
2022-07-25T17:20:50.834Z,96875.09
2022-07-25T17:24:57.386Z,96877.81
2022-07-25T17:29:03.183Z,96868.91
2022-07-25T17:33:11.593Z,96874.63
2022-07-25T17:37:15.214Z,96869.06
2022-07-25T17:41:19.171Z,96872.78
2022-07-25T17:45:26.972Z,96862.84
2022-07-25T17:49:32.240Z,96866.41
2022-07-25T17:53:35.982Z,96861.75
2022-07-25T17:57:41.897Z,96856.00
2022-07-25T18:01:47.117Z,96859.00
2022-07-25T18:05:53.289Z,96848.06
2022-07-25T18:09:58.597Z,96850.72
2022-07-25T18:14:05.117Z,96847.50
2022-07-25T18:18:18.475Z,96843.53
2022-07-25T18:22:25.588Z,96853.72
2022-07-25T18:26:31.975Z,96845.69
2022-07-25T18:30:37.053Z,96853.91
2022-07-25T18:34:44.200Z,96850.91
2022-07-25T18:38:47.998Z,96851.72
2022-07-25T18:42:53.889Z,96858.31
2022-07-25T18:47:00.826Z,96861.13
2022-07-25T18:51:09.546Z,96873.25
2022-07-25T18:55:13.421Z,96875.19
2022-07-25T18:59:16.969Z,96885.66
2022-07-25T19:03:20.571Z,96892.78
2022-07-25T19:07:26.519Z,96892.59
2022-07-25T19:11:29.529Z,96894.81
2022-07-25T19:15:33.276Z,96906.19
2022-07-25T19:19:37.081Z,96909.50
2022-07-25T19:23:44.678Z,96913.88
2022-07-25T19:27:52.194Z,96916.97
2022-07-25T19:31:55.750Z,96908.81
2022-07-25T19:35:59.374Z,96910.13
2022-07-25T19:40:04.610Z,96905.41
2022-07-25T19:44:08.786Z,96905.00
2022-07-25T19:48:13.222Z,96906.16
2022-07-25T19:52:16.862Z,96894.66
2022-07-25T19:56:21.426Z,96891.69
2022-07-25T20:00:24.821Z,96883.34
2022-07-25T20:04:28.620Z,96870.78
2022-07-25T20:08:32.370Z,96858.94
2022-07-25T20:12:37.291Z,96861.94
2022-07-25T20:16:41.419Z,96864.16
2022-07-25T20:20:45.378Z,96867.16
2022-07-25T20:24:49.150Z,96866.34
2022-07-25T20:28:53.891Z,96864.94
2022-07-25T20:32:57.343Z,96866.22
2022-07-25T20:37:00.888Z,96876.06
2022-07-25T20:41:04.474Z,96889.38
2022-07-25T20:45:11.633Z,96890.31
2022-07-25T20:49:17.730Z,96895.25
2022-07-25T20:53:21.567Z,96895.34
2022-07-25T20:57:24.807Z,96894.59
2022-07-25T21:01:30.007Z,96901.94
2022-07-25T21:05:33.871Z,96910.66
2022-07-25T21:09:37.023Z,96915.59
2022-07-25T21:13:40.648Z,96904.16
2022-07-25T21:17:45.893Z,96899.66
2022-07-25T21:21:49.509Z,96899.25
2022-07-25T21:25:52.659Z,96899.56
2022-07-25T21:29:56.169Z,96896.47
2022-07-25T21:34:01.950Z,96895.22
2022-07-25T21:38:05.182Z,96897.03
2022-07-25T21:42:10.485Z,96895.28
2022-07-25T21:46:17.047Z,96889.25
2022-07-25T21:50:43.586Z,96882.91
2022-07-25T21:54:47.773Z,96881.44
2022-07-25T21:58:51.392Z,96894.97
2022-07-25T22:02:54.957Z,96897.72
2022-07-25T22:06:59.864Z,96898.56
2022-07-25T22:11:16.272Z,96909.81
2022-07-25T22:15:27.201Z,96926.94
2022-07-25T22:19:30.709Z,96941.13
2022-07-25T22:23:35.275Z,96969.47
2022-07-25T22:27:40.191Z,96981.25
2022-07-25T22:31:45.007Z,96988.25
2022-07-25T22:35:48.106Z,96989.28
2022-07-25T22:39:56.521Z,96994.63
2022-07-25T22:44:02.815Z,97015.47
2022-07-25T22:48:06.221Z,97030.97
2022-07-25T22:52:10.119Z,97019.47
2022-07-25T22:56:15.293Z,97042.69
2022-07-25T23:00:19.126Z,97049.59
2022-07-25T23:04:22.489Z,97080.63
2022-07-25T23:08:26.179Z,97088.72
2022-07-25T23:12:31.120Z,97134.22
2022-07-25T23:16:43.523Z,97151.59
2022-07-25T23:20:48.152Z,97189.88
2022-07-25T23:24:52.353Z,97244.59
2022-07-25T23:28:57.523Z,97273.03
2022-07-25T23:33:00.610Z,97294.50
2022-07-25T23:37:04.707Z,97325.25
2022-07-25T23:41:08.349Z,97355.41
2022-07-25T23:45:12.966Z,97371.66
2022-07-25T23:49:16.657Z,97394.25
2022-07-25T23:53:20.248Z,97426.34
2022-07-25T23:57:23.406Z,97437.41
